createdAt,value
2019-03-04T00:01:01.067Z,22.20
2019-03-04T00:04:24.811Z,30.20
2019-03-04T00:07:48.706Z,26.60
2019-03-04T00:11:12.576Z,28.13
2019-03-04T00:14:36.311Z,29.67
2019-03-04T00:18:00.286Z,26.80
2019-03-04T00:21:24.030Z,26.40
2019-03-04T00:24:47.750Z,28.03
2019-03-04T00:28:11.691Z,25.97
2019-03-04T00:31:35.541Z,26.00
2019-03-04T00:34:59.412Z,26.07
2019-03-04T00:38:23.390Z,30.13
2019-03-04T00:41:48.240Z,25.67
2019-03-04T00:45:13.632Z,30.50
2019-03-04T00:48:38.758Z,27.27
2019-03-04T00:52:02.545Z,26.70
2019-03-04T00:55:26.418Z,33.10
2019-03-04T00:58:50.104Z,27.47
2019-03-04T01:02:13.931Z,28.93
2019-03-04T01:05:37.731Z,30.60
2019-03-04T01:09:01.444Z,26.50
2019-03-04T01:12:25.456Z,30.43
2019-03-04T01:15:49.310Z,20.40
2019-03-04T01:19:13.173Z,29.30
2019-03-04T01:22:37.171Z,27.97
2019-03-04T01:26:01.107Z,23.97
2019-03-04T01:29:24.778Z,26.27
2019-03-04T01:32:49.018Z,24.47
2019-03-04T01:36:12.947Z,28.80
2019-03-04T01:39:38.078Z,25.20
2019-03-04T01:43:01.823Z,22.60
2019-03-04T01:46:25.701Z,20.17
2019-03-04T01:49:49.468Z,25.93
2019-03-04T01:53:13.185Z,21.67
2019-03-04T01:56:36.944Z,20.57
2019-03-04T02:00:00.704Z,22.77
2019-03-04T02:03:24.463Z,23.33
2019-03-04T02:06:48.300Z,24.83
2019-03-04T02:10:14.231Z,19.70
2019-03-04T02:13:38.066Z,21.37
2019-03-04T02:17:01.843Z,20.63
2019-03-04T02:20:25.692Z,17.47
2019-03-04T02:23:49.537Z,20.30
2019-03-04T02:27:13.324Z,17.97
2019-03-04T02:30:37.129Z,18.53
2019-03-04T02:34:00.831Z,16.67
2019-03-04T02:37:24.692Z,18.63
2019-03-04T02:40:48.569Z,21.33
2019-03-04T02:44:12.607Z,13.93
2019-03-04T02:47:36.423Z,18.93
2019-03-04T02:51:00.211Z,17.47
2019-03-04T02:54:24.038Z,19.13
2019-03-04T02:57:47.823Z,16.87
2019-03-04T03:01:11.756Z,17.10
2019-03-04T03:04:35.502Z,19.03
2019-03-04T03:07:59.766Z,16.37
2019-03-04T03:11:23.603Z,15.10
2019-03-04T03:14:47.410Z,18.17
2019-03-04T03:18:11.445Z,16.67
2019-03-04T03:21:35.141Z,20.27
2019-03-04T03:24:58.915Z,20.53
2019-03-04T03:28:22.912Z,27.03
2019-03-04T03:31:46.645Z,23.27
2019-03-04T03:35:10.795Z,18.90
2019-03-04T03:38:34.916Z,18.23
2019-03-04T03:41:58.672Z,19.23
2019-03-04T03:45:22.566Z,17.83
2019-03-04T03:48:46.358Z,20.17
2019-03-04T03:52:10.266Z,21.40
2019-03-04T03:55:34.117Z,17.80
2019-03-04T03:58:57.824Z,17.73
2019-03-04T04:02:21.595Z,18.47
2019-03-04T04:05:45.384Z,19.00
2019-03-04T04:09:09.787Z,21.27
2019-03-04T04:12:33.485Z,23.17
2019-03-04T04:15:57.299Z,20.17
2019-03-04T04:19:21.318Z,18.33
2019-03-04T04:22:45.053Z,20.47
2019-03-04T04:26:10.521Z,27.63
2019-03-04T04:29:35.893Z,26.27
2019-03-04T04:32:59.625Z,25.13
2019-03-04T04:36:23.375Z,22.10
2019-03-04T04:39:47.119Z,22.27
2019-03-04T04:43:10.886Z,22.10
2019-03-04T04:46:51.575Z,19.80
2019-03-04T04:50:26.926Z,26.37
2019-03-04T04:53:50.803Z,25.73
2019-03-04T04:57:14.678Z,25.03
2019-03-04T05:00:38.538Z,24.27
2019-03-04T05:04:02.459Z,20.47
2019-03-04T05:07:26.357Z,25.97
2019-03-04T05:10:50.198Z,22.50
2019-03-04T05:14:13.898Z,23.20
2019-03-04T05:17:39.692Z,22.87
2019-03-04T05:21:03.109Z,19.60
2019-03-04T05:24:26.866Z,23.30
2019-03-04T05:27:50.824Z,20.60
2019-03-04T05:31:14.663Z,23.63
2019-03-04T05:34:38.623Z,23.87
2019-03-04T05:38:02.397Z,27.10
2019-03-04T05:41:26.338Z,26.23
2019-03-04T05:44:50.183Z,28.43
2019-03-04T05:48:13.961Z,24.83
2019-03-04T05:51:37.838Z,22.57
2019-03-04T05:55:01.739Z,21.73
2019-03-04T05:58:25.778Z,28.93
2019-03-04T06:01:52.616Z,23.37
2019-03-04T06:05:16.364Z,22.33
2019-03-04T06:08:40.290Z,25.57
2019-03-04T06:12:04.163Z,22.40
2019-03-04T06:15:28.093Z,24.00
2019-03-04T06:18:51.825Z,25.87
2019-03-04T06:22:15.559Z,27.73
2019-03-04T06:25:39.379Z,23.00
2019-03-04T06:29:03.174Z,23.67
2019-03-04T06:32:26.976Z,18.67
2019-03-04T06:35:50.756Z,26.67
2019-03-04T06:39:15.747Z,19.87
2019-03-04T06:42:39.501Z,26.47
2019-03-04T06:46:03.406Z,19.30
2019-03-04T06:49:27.229Z,27.80
2019-03-04T06:52:50.914Z,21.37
2019-03-04T06:56:26.594Z,20.97
2019-03-04T06:59:58.778Z,20.53
2019-03-04T07:03:22.657Z,22.53
2019-03-04T07:06:46.872Z,22.23
2019-03-04T07:10:10.863Z,20.67
2019-03-04T07:13:34.685Z,16.57
2019-03-04T07:16:58.484Z,18.77
2019-03-04T07:20:22.562Z,17.17
2019-03-04T07:23:46.471Z,17.37
2019-03-04T07:27:10.230Z,18.27
2019-03-04T07:30:34.153Z,17.60
2019-03-04T07:33:58.852Z,20.60
2019-03-04T07:37:22.648Z,18.77
2019-03-04T07:40:46.441Z,13.77
2019-03-04T07:44:10.117Z,17.03
2019-03-04T07:47:33.988Z,19.93
2019-03-04T07:51:00.858Z,14.03
2019-03-04T07:54:24.766Z,14.87
2019-03-04T07:57:48.528Z,11.30
2019-03-04T08:01:12.363Z,11.60
2019-03-04T08:04:36.303Z,10.90
2019-03-04T08:08:07.996Z,10.93
2019-03-04T08:11:34.703Z,13.27
2019-03-04T08:14:58.536Z,11.70
2019-03-04T08:18:22.441Z,11.87
2019-03-04T08:21:46.252Z,10.43
2019-03-04T08:25:10.978Z,10.00
2019-03-04T08:28:34.821Z,12.70
2019-03-04T08:31:58.638Z,10.27
2019-03-04T08:35:22.545Z,10.47
2019-03-04T08:38:46.204Z,12.07
2019-03-04T08:42:10.052Z,10.57
2019-03-04T08:45:33.871Z,12.43
2019-03-04T08:48:57.638Z,10.20
2019-03-04T08:52:21.511Z,13.00
2019-03-04T08:55:45.668Z,13.10
2019-03-04T08:59:09.680Z,12.37
2019-03-04T09:02:33.945Z,15.60
2019-03-04T09:05:57.615Z,16.80
2019-03-04T09:09:21.514Z,17.73
2019-03-04T09:12:45.309Z,14.87
2019-03-04T09:16:09.155Z,15.20
2019-03-04T09:19:32.925Z,13.20
2019-03-04T09:22:56.811Z,15.63
2019-03-04T09:26:20.686Z,14.37
2019-03-04T09:29:46.588Z,16.30
2019-03-04T09:33:09.995Z,12.43
2019-03-04T09:36:33.760Z,10.77
2019-03-04T09:39:57.551Z,11.53
2019-03-04T09:43:21.522Z,12.00
2019-03-04T09:46:45.562Z,13.30
2019-03-04T09:54:39.695Z,11.97
2019-03-04T09:58:03.500Z,11.47
2019-03-04T10:01:30.613Z,11.10
2019-03-04T10:05:03.223Z,11.57
2019-03-04T10:08:32.911Z,11.47
2019-03-04T10:11:58.320Z,11.03
2019-03-04T10:15:27.868Z,14.40
2019-03-04T10:19:11.047Z,14.67
2019-03-04T10:22:55.916Z,12.83
2019-03-04T10:26:28.210Z,16.27
2019-03-04T10:30:03.846Z,14.93
2019-03-04T10:33:42.869Z,13.30
2019-03-04T10:37:27.413Z,12.33
2019-03-04T10:41:06.381Z,12.20
2019-03-04T10:44:37.962Z,10.13
2019-03-04T10:48:01.923Z,13.43
2019-03-04T10:51:25.618Z,8.77
2019-03-04T10:54:50.346Z,11.67
2019-03-04T10:58:14.315Z,11.40
2019-03-04T11:01:38.091Z,10.87
2019-03-04T11:05:01.843Z,9.00
2019-03-04T11:08:25.740Z,8.33
2019-03-04T11:11:49.628Z,9.70
2019-03-04T11:15:18.604Z,9.07
2019-03-04T11:18:42.623Z,6.90
2019-03-04T11:22:06.776Z,11.10
2019-03-04T11:25:30.895Z,9.77
2019-03-04T11:28:54.723Z,11.93
2019-03-04T11:32:18.679Z,7.73
2019-03-04T11:35:42.563Z,7.57
2019-03-04T11:39:10.890Z,7.90
2019-03-04T11:42:34.790Z,8.67
2019-03-04T11:45:58.736Z,6.30
2019-03-04T11:49:22.584Z,6.90
2019-03-04T11:52:46.383Z,6.03
2019-03-04T11:56:10.176Z,6.53
2019-03-04T11:59:34.794Z,7.97
2019-03-04T12:02:59.558Z,8.10
2019-03-04T12:06:23.365Z,8.03
2019-03-04T12:09:47.235Z,6.30
2019-03-04T12:13:12.166Z,8.13
2019-03-04T12:16:35.868Z,7.00
2019-03-04T12:19:59.706Z,4.90
2019-03-04T12:23:23.640Z,7.83
2019-03-04T12:26:47.730Z,7.77
2019-03-04T12:30:17.278Z,8.07
2019-03-04T12:33:41.148Z,7.77
2019-03-04T12:37:04.948Z,5.00
2019-03-04T12:40:28.971Z,7.00
2019-03-04T12:43:52.888Z,7.03
2019-03-04T12:47:16.744Z,7.50
2019-03-04T12:50:40.489Z,7.73
2019-03-04T12:54:04.248Z,6.00
2019-03-04T12:57:28.391Z,8.67
2019-03-04T13:00:52.166Z,6.73
2019-03-04T13:04:16.347Z,4.83
2019-03-04T13:07:40.508Z,5.43
2019-03-04T13:11:04.238Z,5.27
2019-03-04T13:14:28.043Z,8.40
2019-03-04T13:17:51.868Z,8.77
2019-03-04T13:21:15.752Z,6.73
2019-03-04T13:24:39.700Z,4.63
2019-03-04T13:28:08.208Z,5.33
2019-03-04T13:31:29.236Z,6.83
2019-03-04T13:34:53.083Z,5.97
2019-03-04T13:38:16.858Z,8.00
2019-03-04T13:41:40.830Z,6.93
2019-03-04T13:45:07.794Z,6.87
2019-03-04T13:48:31.673Z,8.97
2019-03-04T13:51:55.415Z,7.07
2019-03-04T13:55:19.971Z,6.37
2019-03-04T13:58:43.981Z,5.37
2019-03-04T14:02:07.958Z,9.50
2019-03-04T14:05:31.682Z,9.37
2019-03-04T14:08:55.435Z,7.97
2019-03-04T14:12:19.794Z,6.77
2019-03-04T14:15:48.898Z,5.57
2019-03-04T14:19:12.659Z,7.33
2019-03-04T14:22:40.321Z,5.00
2019-03-04T14:26:01.999Z,7.87
2019-03-04T14:29:25.836Z,8.23
2019-03-04T14:32:49.718Z,9.33
2019-03-04T14:36:13.689Z,9.47
2019-03-04T14:39:37.591Z,7.27
2019-03-04T14:43:01.319Z,6.30
2019-03-04T14:46:25.383Z,6.03
2019-03-04T14:49:49.169Z,6.47
2019-03-04T14:53:13.456Z,8.37
2019-03-04T14:56:37.229Z,9.77
2019-03-04T15:00:01.095Z,8.93
2019-03-04T15:03:24.969Z,9.30
2019-03-04T15:06:48.853Z,6.63
2019-03-04T15:10:13.008Z,8.47
2019-03-04T15:13:36.990Z,8.30
2019-03-04T15:17:03.592Z,8.60
2019-03-04T15:20:28.183Z,5.97
2019-03-04T15:23:52.443Z,6.97
2019-03-04T15:27:16.355Z,10.17
2019-03-04T15:30:41.093Z,21.27
2019-03-04T15:34:04.888Z,8.83
2019-03-04T15:37:28.675Z,12.70
2019-03-04T15:40:54.246Z,7.20
2019-03-04T15:44:20.723Z,7.23
2019-03-04T15:47:44.601Z,10.43
2019-03-04T15:51:08.613Z,10.37
2019-03-04T15:54:32.627Z,13.30
2019-03-04T15:58:00.193Z,13.47
2019-03-04T16:01:25.584Z,13.07
2019-03-04T16:04:54.904Z,14.13
2019-03-04T16:08:18.234Z,12.60
2019-03-04T16:11:42.221Z,13.33
2019-03-04T16:15:09.181Z,15.80
2019-03-04T16:18:33.100Z,11.47
2019-03-04T16:21:56.913Z,11.93
2019-03-04T16:25:21.021Z,17.43
2019-03-04T16:28:44.894Z,13.60
2019-03-04T16:32:08.649Z,14.80
2019-03-04T16:35:32.596Z,19.10
2019-03-04T16:38:56.493Z,17.73
2019-03-04T16:42:20.493Z,18.57
2019-03-04T16:45:44.669Z,18.17
2019-03-04T16:49:08.709Z,18.30
2019-03-04T16:52:32.629Z,16.40
2019-03-04T16:55:57.420Z,17.63
2019-03-04T16:59:21.360Z,17.07
2019-03-04T17:02:45.292Z,16.93
2019-03-04T17:06:09.177Z,14.80
2019-03-04T17:09:33.056Z,15.77
2019-03-04T17:12:57.013Z,14.13
2019-03-04T17:16:21.106Z,14.17
2019-03-04T17:19:45.079Z,14.27
2019-03-04T17:23:09.172Z,15.13
2019-03-04T17:26:33.441Z,17.47
2019-03-04T17:29:57.226Z,19.83
2019-03-04T17:33:21.754Z,20.63
2019-03-04T17:36:45.806Z,18.27
2019-03-04T17:40:12.487Z,15.00
2019-03-04T17:43:37.036Z,16.37
2019-03-04T17:47:01.046Z,15.40
2019-03-04T17:50:32.894Z,17.93
2019-03-04T17:53:56.756Z,13.97
2019-03-04T17:57:20.710Z,20.00
2019-03-04T18:00:53.457Z,18.73
2019-03-04T18:04:17.569Z,20.93
2019-03-04T18:07:41.388Z,18.33
2019-03-04T18:11:06.323Z,17.33
2019-03-04T18:14:30.890Z,21.37
2019-03-04T18:17:54.794Z,20.23
2019-03-04T18:21:18.771Z,20.40
2019-03-04T18:24:42.809Z,23.10
2019-03-04T18:28:26.089Z,24.57
2019-03-04T18:32:05.025Z,20.33
2019-03-04T18:35:44.026Z,22.43
2019-03-04T18:39:25.794Z,22.03
2019-03-04T18:42:55.773Z,27.67
2019-03-04T18:46:31.461Z,20.20
2019-03-04T18:49:55.470Z,24.87
2019-03-04T18:53:19.560Z,21.73
2019-03-04T18:56:43.556Z,21.87
2019-03-04T19:00:13.793Z,22.40
2019-03-04T19:03:37.760Z,22.17
2019-03-04T19:07:01.647Z,21.60
2019-03-04T19:10:25.534Z,20.83
2019-03-04T19:13:49.813Z,16.87
2019-03-04T19:17:14.088Z,22.80
2019-03-04T19:20:38.190Z,20.00
2019-03-04T19:24:01.911Z,16.83
2019-03-04T19:27:25.893Z,32.10
2019-03-04T19:30:49.554Z,12.80
2019-03-04T19:34:13.436Z,16.43
2019-03-04T19:37:37.383Z,10.07
2019-03-04T19:41:01.226Z,14.63
2019-03-04T19:44:25.086Z,76.23
2019-03-04T19:47:49.215Z,7.57
2019-03-04T19:51:13.786Z,7.60
2019-03-04T19:54:37.774Z,5.67
2019-03-04T19:58:01.722Z,13.67
2019-03-04T20:01:25.716Z,25.80
2019-03-04T20:08:45.259Z,4.20
2019-03-04T20:12:09.760Z,2.10
2019-03-04T20:15:35.265Z,5.27
2019-03-04T20:18:59.288Z,8.63
2019-03-04T20:22:23.107Z,4.17
2019-03-04T20:25:47.101Z,8.87
2019-03-04T20:29:11.013Z,8.60
2019-03-04T20:32:35.398Z,5.53
2019-03-04T20:35:59.253Z,3.50
2019-03-04T20:39:23.501Z,4.03
2019-03-04T20:42:47.312Z,4.23
2019-03-04T20:46:11.556Z,6.90
2019-03-04T20:49:35.496Z,2.30
2019-03-04T20:52:59.464Z,5.00
2019-03-04T20:56:23.284Z,3.90
2019-03-04T20:59:47.041Z,2.10
2019-03-04T21:03:10.893Z,5.23
2019-03-04T21:06:34.887Z,3.57
2019-03-04T21:09:58.711Z,3.67
2019-03-04T21:13:34.811Z,4.77
2019-03-04T21:16:49.633Z,3.83
2019-03-04T21:20:16.158Z,6.33
2019-03-04T21:23:40.530Z,4.17
2019-03-04T21:27:04.521Z,5.30
2019-03-04T21:30:50.436Z,5.80
2019-03-04T21:34:20.129Z,4.93
2019-03-04T21:37:44.253Z,3.87
2019-03-04T21:41:13.849Z,4.83
2019-03-04T21:44:44.001Z,3.87
2019-03-04T21:48:25.838Z,3.57
2019-03-04T21:51:52.718Z,3.60
2019-03-04T21:55:28.382Z,3.57
2019-03-04T21:58:54.636Z,8.00
2019-03-04T22:02:23.515Z,3.87
2019-03-04T22:05:50.449Z,4.63
2019-03-04T22:09:13.473Z,5.13
2019-03-04T22:12:37.406Z,3.83
2019-03-04T22:16:01.378Z,3.60
2019-03-04T22:19:25.283Z,4.60
2019-03-04T22:22:49.188Z,4.07
2019-03-04T22:26:12.862Z,3.63
2019-03-04T22:29:36.980Z,6.83
2019-03-04T22:33:00.835Z,4.77
2019-03-04T22:36:24.626Z,4.73
2019-03-04T22:39:48.387Z,3.47
2019-03-04T22:43:12.085Z,6.50
2019-03-04T22:46:36.206Z,3.60
2019-03-04T22:50:00.021Z,4.30
2019-03-04T22:53:23.724Z,7.03
2019-03-04T22:56:47.597Z,4.50
2019-03-04T23:00:53.915Z,2.80
2019-03-04T23:04:19.276Z,5.40
2019-03-04T23:07:43.128Z,3.33
2019-03-04T23:11:07.022Z,4.80
2019-03-04T23:14:31.283Z,5.27
2019-03-04T23:17:55.073Z,5.13
2019-03-04T23:21:18.838Z,8.30
2019-03-04T23:24:42.902Z,4.40
2019-03-04T23:28:06.853Z,5.47
2019-03-04T23:31:30.631Z,3.97
2019-03-04T23:34:54.935Z,4.20
2019-03-04T23:38:18.886Z,5.17
2019-03-04T23:41:43.565Z,10.10
2019-03-04T23:45:10.271Z,5.60
2019-03-04T23:48:33.996Z,6.53
2019-03-04T23:51:58.895Z,8.27
2019-03-04T23:55:22.721Z,7.87
2019-03-04T23:58:46.596Z,8.30
